sensor_id;sensor_type;location;lat;lon;timestamp;pressure;altitude;pressure_sealevel;temperature
64394;BMP280;50712;49.506;10.400;2023-05-07T00:00:23;98060.75;;;18.35
64394;BMP280;50712;49.506;10.400;2023-05-07T00:00:53;98063.00;;;18.36
64394;BMP280;50712;49.506;10.400;2023-05-07T00:01:25;98063.00;;;18.36
64394;BMP280;50712;49.506;10.400;2023-05-07T00:01:56;98057.50;;;18.36
64394;BMP280;50712;49.506;10.400;2023-05-07T00:02:26;98064.28;;;18.35
64394;BMP280;50712;49.506;10.400;2023-05-07T00:02:56;98065.78;;;18.36
64394;BMP280;50712;49.506;10.400;2023-05-07T00:03:27;98064.28;;;18.35
64394;BMP280;50712;49.506;10.400;2023-05-07T00:03:57;98067.81;;;18.36
64394;BMP280;50712;49.506;10.400;2023-05-07T00:04:28;98069.78;;;18.35
64394;BMP280;50712;49.506;10.400;2023-05-07T00:04:58;98078.84;;;18.36
64394;BMP280;50712;49.506;10.400;2023-05-07T00:05:28;98077.31;;;18.35
64394;BMP280;50712;49.506;10.400;2023-05-07T00:05:59;98076.28;;;18.32
64394;BMP280;50712;49.506;10.400;2023-05-07T00:06:29;98071.28;;;18.31
64394;BMP280;50712;49.506;10.400;2023-05-07T00:07:00;98075.31;;;18.30
64394;BMP280;50712;49.506;10.400;2023-05-07T00:07:30;98073.78;;;18.29
64394;BMP280;50712;49.506;10.400;2023-05-07T00:08:01;98077.03;;;18.27
64394;BMP280;50712;49.506;10.400;2023-05-07T00:08:31;98078.31;;;18.26
64394;BMP280;50712;49.506;10.400;2023-05-07T00:09:02;98072.78;;;18.26
64394;BMP280;50712;49.506;10.400;2023-05-07T00:09:33;98073.25;;;18.25
64394;BMP280;50712;49.506;10.400;2023-05-07T00:10:04;98079.53;;;18.25
64394;BMP280;50712;49.506;10.400;2023-05-07T00:10:36;98075.25;;;18.24
64394;BMP280;50712;49.506;10.400;2023-05-07T00:11:06;98077.28;;;18.24
64394;BMP280;50712;49.506;10.400;2023-05-07T00:11:37;98076.53;;;18.23
64394;BMP280;50712;49.506;10.400;2023-05-07T00:12:07;98073.75;;;18.23
64394;BMP280;50712;49.506;10.400;2023-05-07T00:12:38;98082.03;;;18.23
64394;BMP280;50712;49.506;10.400;2023-05-07T00:13:08;98081.28;;;18.23
64394;BMP280;50712;49.506;10.400;2023-05-07T00:13:38;98074.28;;;18.22
64394;BMP280;50712;49.506;10.400;2023-05-07T00:14:09;98069.72;;;18.19
64394;BMP280;50712;49.506;10.400;2023-05-07T00:14:39;98080.00;;;18.18
64394;BMP280;50712;49.506;10.400;2023-05-07T00:15:10;98071.50;;;18.16
64394;BMP280;50712;49.506;10.400;2023-05-07T00:15:40;98076.75;;;18.14
64394;BMP280;50712;49.506;10.400;2023-05-07T00:16:11;98071.75;;;18.13
64394;BMP280;50712;49.506;10.400;2023-05-07T00:16:41;98077.47;;;18.09
64394;BMP280;50712;49.506;10.400;2023-05-07T00:17:12;98071.19;;;18.09
64394;BMP280;50712;49.506;10.400;2023-05-07T00:17:42;98080.75;;;18.08
64394;BMP280;50712;49.506;10.400;2023-05-07T00:18:12;98074.22;;;18.05
64394;BMP280;50712;49.506;10.400;2023-05-07T00:18:43;98076.97;;;18.05
64394;BMP280;50712;49.506;10.400;2023-05-07T00:19:13;98075.47;;;18.04
64394;BMP280;50712;49.506;10.400;2023-05-07T00:19:43;98074.69;;;18.04
64394;BMP280;50712;49.506;10.400;2023-05-07T00:20:13;98076.72;;;18.03
64394;BMP280;50712;49.506;10.400;2023-05-07T00:20:44;98073.19;;;18.03
64394;BMP280;50712;49.506;10.400;2023-05-07T00:21:14;98078.72;;;18.03
64394;BMP280;50712;49.506;10.400;2023-05-07T00:21:45;98078.22;;;18.04
64394;BMP280;50712;49.506;10.400;2023-05-07T00:22:15;98080.22;;;18.04
64394;BMP280;50712;49.506;10.400;2023-05-07T00:22:45;98076.22;;;18.05
64394;BMP280;50712;49.506;10.400;2023-05-07T00:23:16;98074.97;;;18.06
64394;BMP280;50712;49.506;10.400;2023-05-07T00:23:46;98070.19;;;18.06
64394;BMP280;50712;49.506;10.400;2023-05-07T00:24:17;98071.72;;;18.07
64394;BMP280;50712;49.506;10.400;2023-05-07T00:24:47;98068.19;;;18.07
64394;BMP280;50712;49.506;10.400;2023-05-07T00:25:18;98074.47;;;18.07
64394;BMP280;50712;49.506;10.400;2023-05-07T00:25:49;98069.72;;;18.08
64394;BMP280;50712;49.506;10.400;2023-05-07T00:26:20;98077.25;;;18.07
64394;BMP280;50712;49.506;10.400;2023-05-07T00:26:53;98068.44;;;18.09
64394;BMP280;50712;49.506;10.400;2023-05-07T00:27:24;98071.94;;;18.09
64394;BMP280;50712;49.506;10.400;2023-05-07T00:27:54;98077.00;;;18.11
64394;BMP280;50712;49.506;10.400;2023-05-07T00:28:25;98070.72;;;18.10
64394;BMP280;50712;49.506;10.400;2023-05-07T00:28:55;98074.25;;;18.11
64394;BMP280;50712;49.506;10.400;2023-05-07T00:29:25;98070.97;;;18.12
64394;BMP280;50712;49.506;10.400;2023-05-07T00:29:56;98076.50;;;18.12
64394;BMP280;50712;49.506;10.400;2023-05-07T00:30:26;98075.22;;;18.13
64394;BMP280;50712;49.506;10.400;2023-05-07T00:30:56;98076.50;;;18.12
64394;BMP280;50712;49.506;10.400;2023-05-07T00:31:27;98078.00;;;18.13
64394;BMP280;50712;49.506;10.400;2023-05-07T00:31:57;98077.25;;;18.13
64394;BMP280;50712;49.506;10.400;2023-05-07T00:32:27;98075.22;;;18.13
64394;BMP280;50712;49.506;10.400;2023-05-07T00:32:58;98075.22;;;18.13
64394;BMP280;50712;49.506;10.400;2023-05-07T00:33:28;98073.22;;;18.14
64394;BMP280;50712;49.506;10.400;2023-05-07T00:33:58;98077.25;;;18.13
64394;BMP280;50712;49.506;10.400;2023-05-07T00:34:29;98073.22;;;18.14
64394;BMP280;50712;49.506;10.400;2023-05-07T00:34:59;98078.75;;;18.14
64394;BMP280;50712;49.506;10.400;2023-05-07T00:35:30;98078.25;;;18.15
64394;BMP280;50712;49.506;10.400;2023-05-07T00:36:00;98073.22;;;18.14
64394;BMP280;50712;49.506;10.400;2023-05-07T00:36:32;98076.00;;;18.14
64394;BMP280;50712;49.506;10.400;2023-05-07T00:37:02;98076.00;;;18.14
64394;BMP280;50712;49.506;10.400;2023-05-07T00:37:32;98069.72;;;18.13
64394;BMP280;50712;49.506;10.400;2023-05-07T00:38:03;98065.72;;;18.14
64394;BMP280;50712;49.506;10.400;2023-05-07T00:38:33;98074.00;;;18.14
64394;BMP280;50712;49.506;10.400;2023-05-07T00:39:03;98077.50;;;18.15
64394;BMP280;50712;49.506;10.400;2023-05-07T00:39:34;98069.72;;;18.13
64394;BMP280;50712;49.506;10.400;2023-05-07T00:40:05;98068.47;;;18.14
64394;BMP280;50712;49.506;10.400;2023-05-07T00:40:37;98067.72;;;18.14
64394;BMP280;50712;49.506;10.400;2023-05-07T00:41:07;98074.00;;;18.14
64394;BMP280;50712;49.506;10.400;2023-05-07T00:41:38;98072.47;;;18.13
64394;BMP280;50712;49.506;10.400;2023-05-07T00:42:08;98069.72;;;18.13
64394;BMP280;50712;49.506;10.400;2023-05-07T00:42:38;98067.72;;;18.14
64394;BMP280;50712;49.506;10.400;2023-05-07T00:43:09;98071.25;;;18.14
64394;BMP280;50712;49.506;10.400;2023-05-07T00:43:39;98068.47;;;18.14
64394;BMP280;50712;49.506;10.400;2023-05-07T00:44:09;98071.25;;;18.14
64394;BMP280;50712;49.506;10.400;2023-05-07T00:44:40;98070.47;;;18.14
64394;BMP280;50712;49.506;10.400;2023-05-07T00:45:10;98066.97;;;18.13
64394;BMP280;50712;49.506;10.400;2023-05-07T00:45:41;98067.72;;;18.14
64394;BMP280;50712;49.506;10.400;2023-05-07T00:46:11;98065.72;;;18.14
64394;BMP280;50712;49.506;10.400;2023-05-07T00:46:42;98062.97;;;18.14
64394;BMP280;50712;49.506;10.400;2023-05-07T00:47:12;98066.44;;;18.15
64394;BMP280;50712;49.506;10.400;2023-05-07T00:47:43;98064.19;;;18.13
64394;BMP280;50712;49.506;10.400;2023-05-07T00:48:13;98063.47;;;18.13
64394;BMP280;50712;49.506;10.400;2023-05-07T00:48:44;98059.44;;;18.14
64394;BMP280;50712;49.506;10.400;2023-05-07T00:49:15;98057.19;;;18.12
64394;BMP280;50712;49.506;10.400;2023-05-07T00:49:46;98058.69;;;18.13
64394;BMP280;50712;49.506;10.400;2023-05-07T00:50:16;98049.69;;;18.13
64394;BMP280;50712;49.506;10.400;2023-05-07T00:50:47;98052.44;;;18.13
64394;BMP280;50712;49.506;10.400;2023-05-07T00:51:18;98058.47;;;18.11
64394;BMP280;50712;49.506;10.400;2023-05-07T00:51:48;98050.19;;;18.11
64394;BMP280;50712;49.506;10.400;2023-05-07T00:52:20;98049.41;;;18.11
64394;BMP280;50712;49.506;10.400;2023-05-07T00:52:54;98053.41;;;18.10
64394;BMP280;50712;49.506;10.400;2023-05-07T00:53:24;98055.41;;;18.09
64394;BMP280;50712;49.506;10.400;2023-05-07T00:53:55;98052.66;;;18.09
64394;BMP280;50712;49.506;10.400;2023-05-07T00:54:25;98046.91;;;18.07
64394;BMP280;50712;49.506;10.400;2023-05-07T00:54:56;98048.91;;;18.07
64394;BMP280;50712;49.506;10.400;2023-05-07T00:55:26;98047.88;;;18.04
64394;BMP280;50712;49.506;10.400;2023-05-07T00:55:57;98047.13;;;18.04
64394;BMP280;50712;49.506;10.400;2023-05-07T00:56:28;98043.38;;;18.01
64394;BMP280;50712;49.506;10.400;2023-05-07T00:56:58;98046.59;;;18.00
64394;BMP280;50712;49.506;10.400;2023-05-07T00:57:29;98039.34;;;17.97
64394;BMP280;50712;49.506;10.400;2023-05-07T00:57:59;98046.84;;;17.96
64394;BMP280;50712;49.506;10.400;2023-05-07T00:58:29;98038.31;;;17.94
64394;BMP280;50712;49.506;10.400;2023-05-07T00:59:01;98050.59;;;17.93
64394;BMP280;50712;49.506;10.400;2023-05-07T00:59:32;98045.59;;;17.92
64394;BMP280;50712;49.506;10.400;2023-05-07T01:00:04;98045.31;;;17.90
64394;BMP280;50712;49.506;10.400;2023-05-07T01:00:35;98052.09;;;17.89
64394;BMP280;50712;49.506;10.400;2023-05-07T01:01:05;98051.34;;;17.88
64394;BMP280;50712;49.506;10.400;2023-05-07T01:01:36;98049.81;;;17.87
64394;BMP280;50712;49.506;10.400;2023-05-07T01:02:06;98048.31;;;17.86
64394;BMP280;50712;49.506;10.400;2023-05-07T01:02:38;98050.31;;;17.86
64394;BMP280;50712;49.506;10.400;2023-05-07T01:03:11;98055.06;;;17.85
64394;BMP280;50712;49.506;10.400;2023-05-07T01:03:42;98048.81;;;17.85
64394;BMP280;50712;49.506;10.400;2023-05-07T01:04:13;98048.06;;;17.84
64394;BMP280;50712;49.506;10.400;2023-05-07T01:04:43;98050.81;;;17.84
64394;BMP280;50712;49.506;10.400;2023-05-07T01:05:14;98048.81;;;17.85
64394;BMP280;50712;49.506;10.400;2023-05-07T01:05:47;98048.81;;;17.85
64394;BMP280;50712;49.506;10.400;2023-05-07T01:06:18;98053.59;;;17.84
64394;BMP280;50712;49.506;10.400;2023-05-07T01:06:51;98048.06;;;17.84
64394;BMP280;50712;49.506;10.400;2023-05-07T01:07:22;98052.31;;;17.85
64394;BMP280;50712;49.506;10.400;2023-05-07T01:07:53;98053.84;;;17.86
64394;BMP280;50712;49.506;10.400;2023-05-07T01:08:25;98055.06;;;17.85
64394;BMP280;50712;49.506;10.400;2023-05-07T01:08:58;98051.56;;;17.85
64394;BMP280;50712;49.506;10.400;2023-05-07T01:09:29;98057.06;;;17.85
64394;BMP280;50712;49.506;10.400;2023-05-07T01:10:00;98054.31;;;17.85
64394;BMP280;50712;49.506;10.400;2023-05-07T01:10:31;98059.09;;;17.84
64394;BMP280;50712;49.506;10.400;2023-05-07T01:11:01;98054.81;;;17.83
64394;BMP280;50712;49.506;10.400;2023-05-07T01:11:32;98056.84;;;17.83
64394;BMP280;50712;49.506;10.400;2023-05-07T01:12:02;98051.31;;;17.83
64394;BMP280;50712;49.506;10.400;2023-05-07T01:12:34;98051.81;;;17.81
64394;BMP280;50712;49.506;10.400;2023-05-07T01:13:06;98050.56;;;17.82
64394;BMP280;50712;49.506;10.400;2023-05-07T01:13:37;98048.56;;;17.83
64394;BMP280;50712;49.506;10.400;2023-05-07T01:14:09;98049.81;;;17.82
64394;BMP280;50712;49.506;10.400;2023-05-07T01:14:40;98054.81;;;17.83
64394;BMP280;50712;49.506;10.400;2023-05-07T01:15:10;98048.56;;;17.83
64394;BMP280;50712;49.506;10.400;2023-05-07T01:15:41;98050.56;;;17.82
64394;BMP280;50712;49.506;10.400;2023-05-07T01:16:13;98050.56;;;17.82
64394;BMP280;50712;49.506;10.400;2023-05-07T01:16:43;98045.81;;;17.83
64394;BMP280;50712;49.506;10.400;2023-05-07T01:17:14;98044.28;;;17.82
64394;BMP280;50712;49.506;10.400;2023-05-07T01:17:44;98042.78;;;17.81
64394;BMP280;50712;49.506;10.400;2023-05-07T01:18:24;98041.31;;;17.80
64394;BMP280;50712;49.506;10.400;2023-05-07T01:18:55;98041.31;;;17.80
64394;BMP280;50712;49.506;10.400;2023-05-07T01:19:26;98041.31;;;17.80
64394;BMP280;50712;49.506;10.400;2023-05-07T01:20:00;98041.00;;;17.78
64394;BMP280;50712;49.506;10.400;2023-05-07T01:20:30;98044.53;;;17.78
64394;BMP280;50712;49.506;10.400;2023-05-07T01:21:01;98041.78;;;17.78
64394;BMP280;50712;49.506;10.400;2023-05-07T01:21:34;98039.03;;;17.78
64394;BMP280;50712;49.506;10.400;2023-05-07T01:22:09;98043.28;;;17.79
64394;BMP280;50712;49.506;10.400;2023-05-07T01:22:50;98045.28;;;17.79
64394;BMP280;50712;49.506;10.400;2023-05-07T01:23:20;98041.00;;;17.78
64394;BMP280;50712;49.506;10.400;2023-05-07T01:23:51;98038.25;;;17.78
64394;BMP280;50712;49.506;10.400;2023-05-07T01:24:22;98043.00;;;17.77
64394;BMP280;50712;49.506;10.400;2023-05-07T01:24:52;98039.53;;;17.77
64394;BMP280;50712;49.506;10.400;2023-05-07T01:25:24;98036.75;;;17.77
64394;BMP280;50712;49.506;10.400;2023-05-07T01:25:57;98041.50;;;17.76
64394;BMP280;50712;49.506;10.400;2023-05-07T01:26:30;98041.50;;;17.76
64394;BMP280;50712;49.506;10.400;2023-05-07T01:27:00;98043.50;;;17.76
64394;BMP280;50712;49.506;10.400;2023-05-07T01:27:34;98040.75;;;17.76
64394;BMP280;50712;49.506;10.400;2023-05-07T01:28:06;98038.00;;;17.76
64394;BMP280;50712;49.506;10.400;2023-05-07T01:28:39;98045.53;;;17.75
64394;BMP280;50712;49.506;10.400;2023-05-07T01:29:10;98038.50;;;17.74
64394;BMP280;50712;49.506;10.400;2023-05-07T01:29:40;98038.50;;;17.74
64394;BMP280;50712;49.506;10.400;2023-05-07T01:30:11;98055.78;;;17.75
64394;BMP280;50712;49.506;10.400;2023-05-07T01:30:42;98044.00;;;17.74
64394;BMP280;50712;49.506;10.400;2023-05-07T01:31:17;98044.50;;;17.73
64394;BMP280;50712;49.506;10.400;2023-05-07T01:31:48;98039.00;;;17.73
64394;BMP280;50712;49.506;10.400;2023-05-07T01:32:21;98045.75;;;17.71
64394;BMP280;50712;49.506;10.400;2023-05-07T01:33:04;98043.00;;;17.71
64394;BMP280;50712;49.506;10.400;2023-05-07T01:33:38;98041.47;;;17.70
64394;BMP280;50712;49.506;10.400;2023-05-07T01:34:11;98042.75;;;17.69
64394;BMP280;50712;49.506;10.400;2023-05-07T01:34:42;98039.25;;;17.69
64394;BMP280;50712;49.506;10.400;2023-05-07T01:35:18;98035.72;;;17.68
64394;BMP280;50712;49.506;10.400;2023-05-07T01:35:51;98036.94;;;17.67
64394;BMP280;50712;49.506;10.400;2023-05-07T01:36:23;98041.22;;;17.68
64394;BMP280;50712;49.506;10.400;2023-05-07T01:36:56;98035.47;;;17.66
64394;BMP280;50712;49.506;10.400;2023-05-07T01:37:28;98045.72;;;17.66
64394;BMP280;50712;49.506;10.400;2023-05-07T01:37:59;98042.47;;;17.67
64394;BMP280;50712;49.506;10.400;2023-05-07T01:38:30;98052.75;;;17.67
64394;BMP280;50712;49.506;10.400;2023-05-07T01:39:01;98042.97;;;17.66
64394;BMP280;50712;49.506;10.400;2023-05-07T01:39:32;98040.72;;;17.64
64394;BMP280;50712;49.506;10.400;2023-05-07T01:40:03;98045.72;;;17.66
64394;BMP280;50712;49.506;10.400;2023-05-07T01:40:34;98045.72;;;17.66
64394;BMP280;50712;49.506;10.400;2023-05-07T01:41:05;98044.94;;;17.65
64394;BMP280;50712;49.506;10.400;2023-05-07T01:41:37;98044.22;;;17.65
64394;BMP280;50712;49.506;10.400;2023-05-07T01:42:08;98042.19;;;17.65
64394;BMP280;50712;49.506;10.400;2023-05-07T01:42:39;98050.47;;;17.65
64394;BMP280;50712;49.506;10.400;2023-05-07T01:43:11;98048.97;;;17.64
64394;BMP280;50712;49.506;10.400;2023-05-07T01:43:42;98046.97;;;17.65
64394;BMP280;50712;49.506;10.400;2023-05-07T01:44:13;98055.25;;;17.65
64394;BMP280;50712;49.506;10.400;2023-05-07T01:44:44;98047.72;;;17.65
64394;BMP280;50712;49.506;10.400;2023-05-07T01:45:15;98043.47;;;17.64
64394;BMP280;50712;49.506;10.400;2023-05-07T01:45:46;98039.44;;;17.65
64394;BMP280;50712;49.506;10.400;2023-05-07T01:46:19;98035.97;;;17.65
64394;BMP280;50712;49.506;10.400;2023-05-07T01:46:50;98044.94;;;17.65
64394;BMP280;50712;49.506;10.400;2023-05-07T01:47:20;98047.72;;;17.65
64394;BMP280;50712;49.506;10.400;2023-05-07T01:47:51;98042.97;;;17.66
64394;BMP280;50712;49.506;10.400;2023-05-07T01:48:22;98041.47;;;17.65
64394;BMP280;50712;49.506;10.400;2023-05-07T01:48:54;98042.69;;;17.64
64394;BMP280;50712;49.506;10.400;2023-05-07T01:49:24;98039.94;;;17.64
64394;BMP280;50712;49.506;10.400;2023-05-07T01:49:55;98043.47;;;17.64
64394;BMP280;50712;49.506;10.400;2023-05-07T01:50:26;98042.69;;;17.64
64394;BMP280;50712;49.506;10.400;2023-05-07T01:50:57;98040.72;;;17.64
64394;BMP280;50712;49.506;10.400;2023-05-07T01:51:28;98039.94;;;17.64
64394;BMP280;50712;49.506;10.400;2023-05-07T01:51:59;98041.22;;;17.63
64394;BMP280;50712;49.506;10.400;2023-05-07T01:52:30;98036.47;;;17.63
64394;BMP280;50712;49.506;10.400;2023-05-07T01:53:01;98037.19;;;17.64
64394;BMP280;50712;49.506;10.400;2023-05-07T01:53:39;98039.22;;;17.63
64394;BMP280;50712;49.506;10.400;2023-05-07T01:54:10;98035.69;;;17.63
64394;BMP280;50712;49.506;10.400;2023-05-07T01:54:40;98035.69;;;17.63
64394;BMP280;50712;49.506;10.400;2023-05-07T01:55:11;98043.19;;;17.62
64394;BMP280;50712;49.506;10.400;2023-05-07T01:55:42;98037.69;;;17.62
64394;BMP280;50712;49.506;10.400;2023-05-07T01:56:13;98045.94;;;17.62
64394;BMP280;50712;49.506;10.400;2023-05-07T01:56:45;98040.44;;;17.62
64394;BMP280;50712;49.506;10.400;2023-05-07T01:57:18;98045.69;;;17.60
64394;BMP280;50712;49.506;10.400;2023-05-07T01:57:48;98036.69;;;17.60
64394;BMP280;50712;49.506;10.400;2023-05-07T01:58:18;98039.91;;;17.58
64394;BMP280;50712;49.506;10.400;2023-05-07T01:58:49;98042.69;;;17.58
64394;BMP280;50712;49.506;10.400;2023-05-07T01:59:21;98048.69;;;17.57
64394;BMP280;50712;49.506;10.400;2023-05-07T01:59:51;98045.66;;;17.55
64394;BMP280;50712;49.506;10.400;2023-05-07T02:00:22;98038.66;;;17.54
64394;BMP280;50712;49.506;10.400;2023-05-07T02:00:52;98039.13;;;17.52
64394;BMP280;50712;49.506;10.400;2023-05-07T02:01:23;98043.13;;;17.51
64394;BMP280;50712;49.506;10.400;2023-05-07T02:01:53;98043.13;;;17.51
64394;BMP280;50712;49.506;10.400;2023-05-07T02:02:24;98040.88;;;17.50
64394;BMP280;50712;49.506;10.400;2023-05-07T02:02:57;98046.41;;;17.50
64394;BMP280;50712;49.506;10.400;2023-05-07T02:03:39;98041.38;;;17.48
64394;BMP280;50712;49.506;10.400;2023-05-07T02:04:15;98045.63;;;17.49
64394;BMP280;50712;49.506;10.400;2023-05-07T02:04:46;98044.13;;;17.48
64394;BMP280;50712;49.506;10.400;2023-05-07T02:05:17;98036.34;;;17.47
64394;BMP280;50712;49.506;10.400;2023-05-07T02:05:50;98043.13;;;17.46
64394;BMP280;50712;49.506;10.400;2023-05-07T02:06:37;98033.84;;;17.43
64394;BMP280;50712;49.506;10.400;2023-05-07T02:07:09;98043.31;;;17.42
64394;BMP280;50712;49.506;10.400;2023-05-07T02:07:41;98046.59;;;17.41
64394;BMP280;50712;49.506;10.400;2023-05-07T02:08:11;98040.81;;;17.39
64394;BMP280;50712;49.506;10.400;2023-05-07T02:08:42;98036.56;;;17.38
64394;BMP280;50712;49.506;10.400;2023-05-07T02:09:14;98037.78;;;17.37
64394;BMP280;50712;49.506;10.400;2023-05-07T02:09:46;98041.81;;;17.36
64394;BMP280;50712;49.506;10.400;2023-05-07T02:10:17;98045.81;;;17.35
64394;BMP280;50712;49.506;10.400;2023-05-07T02:10:47;98037.25;;;17.33
64394;BMP280;50712;49.506;10.400;2023-05-07T02:11:18;98035.75;;;17.32
64394;BMP280;50712;49.506;10.400;2023-05-07T02:11:48;98036.25;;;17.30
64394;BMP280;50712;49.506;10.400;2023-05-07T02:12:19;98031.97;;;17.29
64394;BMP280;50712;49.506;10.400;2023-05-07T02:12:49;98041.50;;;17.28
64394;BMP280;50712;49.506;10.400;2023-05-07T02:13:20;98042.75;;;17.27
64394;BMP280;50712;49.506;10.400;2023-05-07T02:13:52;98046.00;;;17.26
64394;BMP280;50712;49.506;10.400;2023-05-07T02:14:23;98035.47;;;17.24
64394;BMP280;50712;49.506;10.400;2023-05-07T02:14:53;98042.22;;;17.23
64394;BMP280;50712;49.506;10.400;2023-05-07T02:15:24;98044.19;;;17.23
64394;BMP280;50712;49.506;10.400;2023-05-07T02:15:56;98041.22;;;17.21
64394;BMP280;50712;49.506;10.400;2023-05-07T02:16:28;98041.41;;;17.17
64394;BMP280;50712;49.506;10.400;2023-05-07T02:16:58;98048.91;;;17.17
64394;BMP280;50712;49.506;10.400;2023-05-07T02:17:29;98041.63;;;17.14
64394;BMP280;50712;49.506;10.400;2023-05-07T02:18:03;98041.41;;;17.12
64394;BMP280;50712;49.506;10.400;2023-05-07T02:18:36;98041.59;;;17.08
64394;BMP280;50712;49.506;10.400;2023-05-07T02:19:06;98050.34;;;17.07
64394;BMP280;50712;49.506;10.400;2023-05-07T02:19:36;98046.56;;;17.04
64394;BMP280;50712;49.506;10.400;2023-05-07T02:20:07;98046.31;;;17.02
64394;BMP280;50712;49.506;10.400;2023-05-07T02:20:43;98045.31;;;17.00
64394;BMP280;50712;49.506;10.400;2023-05-07T02:21:13;98045.78;;;16.98
64394;BMP280;50712;49.506;10.400;2023-05-07T02:21:44;98049.03;;;16.97
64394;BMP280;50712;49.506;10.400;2023-05-07T02:22:14;98046.78;;;16.95
64394;BMP280;50712;49.506;10.400;2023-05-07T02:22:45;98042.50;;;16.94
64394;BMP280;50712;49.506;10.400;2023-05-07T02:23:15;98043.75;;;16.93
64394;BMP280;50712;49.506;10.400;2023-05-07T02:23:46;98046.50;;;16.93
64394;BMP280;50712;49.506;10.400;2023-05-07T02:24:16;98041.75;;;16.94
64394;BMP280;50712;49.506;10.400;2023-05-07T02:24:47;98053.22;;;16.92
64394;BMP280;50712;49.506;10.400;2023-05-07T02:25:17;98040.72;;;16.91
64394;BMP280;50712;49.506;10.400;2023-05-07T02:25:47;98045.50;;;16.91
64394;BMP280;50712;49.506;10.400;2023-05-07T02:26:18;98045.50;;;16.91
64394;BMP280;50712;49.506;10.400;2023-05-07T02:26:48;98046.22;;;16.91
64394;BMP280;50712;49.506;10.400;2023-05-07T02:27:19;98043.97;;;16.90
64394;BMP280;50712;49.506;10.400;2023-05-07T02:27:49;98039.22;;;16.90
64394;BMP280;50712;49.506;10.400;2023-05-07T02:28:20;98043.22;;;16.89
64394;BMP280;50712;49.506;10.400;2023-05-07T02:28:58;98050.25;;;16.90
64394;BMP280;50712;49.506;10.400;2023-05-07T02:29:28;98050.25;;;16.90
64394;BMP280;50712;49.506;10.400;2023-05-07T02:29:59;98051.00;;;16.91
64394;BMP280;50712;49.506;10.400;2023-05-07T02:30:30;98048.97;;;16.91
64394;BMP280;50712;49.506;10.400;2023-05-07T02:31:02;98051.75;;;16.91
64394;BMP280;50712;49.506;10.400;2023-05-07T02:31:33;98051.75;;;16.91
64394;BMP280;50712;49.506;10.400;2023-05-07T02:32:04;98054.50;;;16.91
64394;BMP280;50712;49.506;10.400;2023-05-07T02:32:35;98051.75;;;16.91
64394;BMP280;50712;49.506;10.400;2023-05-07T02:33:05;98048.25;;;16.91
64394;BMP280;50712;49.506;10.400;2023-05-07T02:33:37;98052.50;;;16.92
64394;BMP280;50712;49.506;10.400;2023-05-07T02:34:10;98056.50;;;16.91
64394;BMP280;50712;49.506;10.400;2023-05-07T02:34:40;98054.50;;;16.91
64394;BMP280;50712;49.506;10.400;2023-05-07T02:35:11;98051.75;;;16.91
64394;BMP280;50712;49.506;10.400;2023-05-07T02:35:41;98049.47;;;16.90
64394;BMP280;50712;49.506;10.400;2023-05-07T02:36:12;98048.72;;;16.89
64394;BMP280;50712;49.506;10.400;2023-05-07T02:37:03;98044.44;;;16.88
64394;BMP280;50712;49.506;10.400;2023-05-07T02:37:33;98049.94;;;16.88
64394;BMP280;50712;49.506;10.400;2023-05-07T02:38:04;98046.47;;;16.88
64394;BMP280;50712;49.506;10.400;2023-05-07T02:38:36;98041.69;;;16.88
64394;BMP280;50712;49.506;10.400;2023-05-07T02:39:06;98046.47;;;16.88
64394;BMP280;50712;49.506;10.400;2023-05-07T02:39:37;98047.19;;;16.88
64394;BMP280;50712;49.506;10.400;2023-05-07T02:40:07;98043.72;;;16.88
64394;BMP280;50712;49.506;10.400;2023-05-07T02:40:38;98043.72;;;16.88
64394;BMP280;50712;49.506;10.400;2023-05-07T02:41:09;98042.94;;;16.87
64394;BMP280;50712;49.506;10.400;2023-05-07T02:41:40;98040.19;;;16.87
64394;BMP280;50712;49.506;10.400;2023-05-07T02:42:10;98041.44;;;16.86
64394;BMP280;50712;49.506;10.400;2023-05-07T02:42:40;98038.44;;;16.84
64394;BMP280;50712;49.506;10.400;2023-05-07T02:43:11;98041.44;;;16.86
64394;BMP280;50712;49.506;10.400;2023-05-07T02:43:44;98041.44;;;16.86
64394;BMP280;50712;49.506;10.400;2023-05-07T02:44:15;98041.44;;;16.86
64394;BMP280;50712;49.506;10.400;2023-05-07T02:44:45;98035.19;;;16.86
64394;BMP280;50712;49.506;10.400;2023-05-07T02:45:16;98034.69;;;16.87
64394;BMP280;50712;49.506;10.400;2023-05-07T02:45:48;98040.97;;;16.88
64394;BMP280;50712;49.506;10.400;2023-05-07T02:46:19;98040.97;;;16.88
64394;BMP280;50712;49.506;10.400;2023-05-07T02:46:55;98047.19;;;16.88
64394;BMP280;50712;49.506;10.400;2023-05-07T02:47:25;98045.19;;;16.89
64394;BMP280;50712;49.506;10.400;2023-05-07T02:47:58;98047.50;;;16.90
64394;BMP280;50712;49.506;10.400;2023-05-07T02:48:28;98040.47;;;16.89
64394;BMP280;50712;49.506;10.400;2023-05-07T02:48:59;98045.50;;;16.91
64394;BMP280;50712;49.506;10.400;2023-05-07T02:49:29;98039.22;;;16.90
64394;BMP280;50712;49.506;10.400;2023-05-07T02:49:59;98037.97;;;16.91
64394;BMP280;50712;49.506;10.400;2023-05-07T02:50:30;98043.47;;;16.91
64394;BMP280;50712;49.506;10.400;2023-05-07T02:51:02;98047.72;;;16.92
64394;BMP280;50712;49.506;10.400;2023-05-07T02:51:34;98043.75;;;16.93
64394;BMP280;50712;49.506;10.400;2023-05-07T02:52:07;98040.50;;;16.95
64394;BMP280;50712;49.506;10.400;2023-05-07T02:52:38;98045.25;;;16.94
64394;BMP280;50712;49.506;10.400;2023-05-07T02:53:08;98046.78;;;16.95
64394;BMP280;50712;49.506;10.400;2023-05-07T02:53:38;98041.25;;;16.95
64394;BMP280;50712;49.506;10.400;2023-05-07T02:54:09;98048.75;;;16.95
64394;BMP280;50712;49.506;10.400;2023-05-07T02:54:39;98047.53;;;16.96
64394;BMP280;50712;49.506;10.400;2023-05-07T02:55:10;98042.03;;;16.96
64394;BMP280;50712;49.506;10.400;2023-05-07T02:55:40;98051.50;;;16.95
64394;BMP280;50712;49.506;10.400;2023-05-07T02:56:11;98047.53;;;16.96
64394;BMP280;50712;49.506;10.400;2023-05-07T02:56:41;98046.78;;;16.95
64394;BMP280;50712;49.506;10.400;2023-05-07T02:57:11;98044.00;;;16.95
64394;BMP280;50712;49.506;10.400;2023-05-07T02:57:42;98046.00;;;16.95